sensor_id;sensor_type;location;lat;lon;timestamp;P1;durP1;ratioP1;P2;durP2;ratioP2
36449;SDS011;22475;51.390;7.180;2023-06-22T00:02:00;3.45;;;1.83;;
36449;SDS011;22475;51.390;7.180;2023-06-22T00:04:27;2.60;;;2.25;;
36449;SDS011;22475;51.390;7.180;2023-06-22T00:06:54;2.00;;;1.90;;
36449;SDS011;22475;51.390;7.180;2023-06-22T00:09:20;2.65;;;2.45;;
36449;SDS011;22475;51.390;7.180;2023-06-22T00:11:47;2.58;;;2.38;;
36449;SDS011;22475;51.390;7.180;2023-06-22T00:14:15;2.28;;;2.17;;
36449;SDS011;22475;51.390;7.180;2023-06-22T00:16:42;3.20;;;2.05;;
36449;SDS011;22475;51.390;7.180;2023-06-22T00:19:08;2.53;;;2.33;;
36449;SDS011;22475;51.390;7.180;2023-06-22T00:21:36;2.03;;;1.83;;
36449;SDS011;22475;51.390;7.180;2023-06-22T00:24:04;2.33;;;2.20;;
36449;SDS011;22475;51.390;7.180;2023-06-22T00:26:32;2.78;;;2.50;;
36449;SDS011;22475;51.390;7.180;2023-06-22T00:28:58;2.10;;;2.00;;
36449;SDS011;22475;51.390;7.180;2023-06-22T00:31:26;2.10;;;2.00;;
36449;SDS011;22475;51.390;7.180;2023-06-22T00:33:53;2.28;;;2.10;;
36449;SDS011;22475;51.390;7.180;2023-06-22T00:36:20;2.15;;;1.92;;
36449;SDS011;22475;51.390;7.180;2023-06-22T00:38:47;2.70;;;2.28;;
36449;SDS011;22475;51.390;7.180;2023-06-22T00:41:15;2.75;;;2.38;;
36449;SDS011;22475;51.390;7.180;2023-06-22T00:43:42;2.47;;;1.95;;
36449;SDS011;22475;51.390;7.180;2023-06-22T00:46:09;2.53;;;2.28;;
36449;SDS011;22475;51.390;7.180;2023-06-22T00:48:37;1.83;;;1.73;;
36449;SDS011;22475;51.390;7.180;2023-06-22T00:53:33;2.13;;;1.90;;
36449;SDS011;22475;51.390;7.180;2023-06-22T00:56:02;2.47;;;2.28;;
36449;SDS011;22475;51.390;7.180;2023-06-22T00:58:30;2.13;;;2.00;;
36449;SDS011;22475;51.390;7.180;2023-06-22T01:00:57;2.38;;;2.17;;
36449;SDS011;22475;51.390;7.180;2023-06-22T01:03:24;2.65;;;2.10;;
36449;SDS011;22475;51.390;7.180;2023-06-22T01:05:52;3.08;;;2.38;;
36449;SDS011;22475;51.390;7.180;2023-06-22T01:08:29;6.47;;;2.35;;
36449;SDS011;22475;51.390;7.180;2023-06-22T01:11:05;2.20;;;2.03;;
36449;SDS011;22475;51.390;7.180;2023-06-22T01:13:37;2.00;;;1.90;;
36449;SDS011;22475;51.390;7.180;2023-06-22T01:16:12;2.78;;;1.90;;
36449;SDS011;22475;51.390;7.180;2023-06-22T01:18:43;2.45;;;2.25;;
36449;SDS011;22475;51.390;7.180;2023-06-22T01:21:16;2.58;;;2.38;;
36449;SDS011;22475;51.390;7.180;2023-06-22T01:23:51;1.95;;;1.75;;
36449;SDS011;22475;51.390;7.180;2023-06-22T01:26:28;2.88;;;2.35;;
36449;SDS011;22475;51.390;7.180;2023-06-22T01:29:05;2.65;;;2.10;;
36449;SDS011;22475;51.390;7.180;2023-06-22T01:31:33;2.15;;;1.95;;
36449;SDS011;22475;51.390;7.180;2023-06-22T01:34:01;3.42;;;1.90;;
36449;SDS011;22475;51.390;7.180;2023-06-22T01:36:30;5.13;;;2.07;;
36449;SDS011;22475;51.390;7.180;2023-06-22T01:38:59;2.85;;;2.63;;
36449;SDS011;22475;51.390;7.180;2023-06-22T01:41:29;2.47;;;2.28;;
36449;SDS011;22475;51.390;7.180;2023-06-22T01:43:57;2.60;;;2.35;;
36449;SDS011;22475;51.390;7.180;2023-06-22T01:46:26;2.90;;;2.30;;
36449;SDS011;22475;51.390;7.180;2023-06-22T01:48:53;2.00;;;1.85;;
36449;SDS011;22475;51.390;7.180;2023-06-22T01:51:21;2.17;;;2.08;;
36449;SDS011;22475;51.390;7.180;2023-06-22T01:53:48;2.08;;;1.98;;
36449;SDS011;22475;51.390;7.180;2023-06-22T01:56:15;3.15;;;2.85;;
36449;SDS011;22475;51.390;7.180;2023-06-22T01:58:46;2.20;;;2.03;;
36449;SDS011;22475;51.390;7.180;2023-06-22T02:01:17;3.50;;;2.97;;
36449;SDS011;22475;51.390;7.180;2023-06-22T02:03:52;2.20;;;2.00;;
36449;SDS011;22475;51.390;7.180;2023-06-22T02:06:29;4.75;;;2.00;;
36449;SDS011;22475;51.390;7.180;2023-06-22T02:09:02;3.58;;;2.22;;
36449;SDS011;22475;51.390;7.180;2023-06-22T02:11:33;2.83;;;2.17;;
36449;SDS011;22475;51.390;7.180;2023-06-22T02:14:02;4.28;;;2.10;;
36449;SDS011;22475;51.390;7.180;2023-06-22T02:16:30;2.58;;;2.38;;
36449;SDS011;22475;51.390;7.180;2023-06-22T02:19:00;6.32;;;2.10;;
36449;SDS011;22475;51.390;7.180;2023-06-22T02:21:29;3.70;;;2.30;;
36449;SDS011;22475;51.390;7.180;2023-06-22T02:23:56;2.35;;;2.15;;
36449;SDS011;22475;51.390;7.180;2023-06-22T02:26:23;2.53;;;2.33;;
36449;SDS011;22475;51.390;7.180;2023-06-22T02:28:51;2.85;;;2.00;;
36449;SDS011;22475;51.390;7.180;2023-06-22T02:31:18;2.65;;;1.90;;
36449;SDS011;22475;51.390;7.180;2023-06-22T02:33:45;7.13;;;2.08;;
36449;SDS011;22475;51.390;7.180;2023-06-22T02:36:13;2.97;;;2.47;;
36449;SDS011;22475;51.390;7.180;2023-06-22T02:38:40;2.28;;;2.17;;
36449;SDS011;22475;51.390;7.180;2023-06-22T02:41:13;2.70;;;2.50;;
36449;SDS011;22475;51.390;7.180;2023-06-22T02:43:43;2.80;;;2.58;;
36449;SDS011;22475;51.390;7.180;2023-06-22T02:46:11;2.47;;;2.22;;
36449;SDS011;22475;51.390;7.180;2023-06-22T02:48:38;1.98;;;1.83;;
36449;SDS011;22475;51.390;7.180;2023-06-22T02:51:05;6.32;;;2.67;;
36449;SDS011;22475;51.390;7.180;2023-06-22T02:53:33;2.80;;;2.55;;
36449;SDS011;22475;51.390;7.180;2023-06-22T02:56:00;3.03;;;2.28;;
36449;SDS011;22475;51.390;7.180;2023-06-22T02:58:28;2.80;;;2.22;;
36449;SDS011;22475;51.390;7.180;2023-06-22T03:00:55;2.30;;;1.88;;
36449;SDS011;22475;51.390;7.180;2023-06-22T03:03:21;3.67;;;2.22;;
36449;SDS011;22475;51.390;7.180;2023-06-22T03:05:51;1.98;;;1.88;;
36449;SDS011;22475;51.390;7.180;2023-06-22T03:08:18;2.95;;;2.10;;
36449;SDS011;22475;51.390;7.180;2023-06-22T03:10:46;2.75;;;2.45;;
36449;SDS011;22475;51.390;7.180;2023-06-22T03:13:12;3.85;;;2.42;;
36449;SDS011;22475;51.390;7.180;2023-06-22T03:15:39;3.58;;;2.38;;
36449;SDS011;22475;51.390;7.180;2023-06-22T03:18:06;4.75;;;3.05;;
36449;SDS011;22475;51.390;7.180;2023-06-22T03:20:33;2.65;;;2.25;;
36449;SDS011;22475;51.390;7.180;2023-06-22T03:22:59;2.13;;;2.03;;
36449;SDS011;22475;51.390;7.180;2023-06-22T03:25:26;2.60;;;2.40;;
36449;SDS011;22475;51.390;7.180;2023-06-22T03:27:54;3.40;;;2.53;;
36449;SDS011;22475;51.390;7.180;2023-06-22T03:30:21;2.80;;;2.25;;
36449;SDS011;22475;51.390;7.180;2023-06-22T03:32:48;2.75;;;2.03;;
36449;SDS011;22475;51.390;7.180;2023-06-22T03:35:14;2.72;;;2.45;;
36449;SDS011;22475;51.390;7.180;2023-06-22T03:37:41;5.63;;;3.20;;
36449;SDS011;22475;51.390;7.180;2023-06-22T03:40:08;3.05;;;2.72;;
36449;SDS011;22475;51.390;7.180;2023-06-22T03:42:35;4.32;;;2.92;;
36449;SDS011;22475;51.390;7.180;2023-06-22T03:45:04;2.60;;;2.40;;
36449;SDS011;22475;51.390;7.180;2023-06-22T03:47:32;3.97;;;2.20;;
36449;SDS011;22475;51.390;7.180;2023-06-22T03:49:59;7.43;;;2.22;;
36449;SDS011;22475;51.390;7.180;2023-06-22T03:52:28;2.63;;;2.42;;
36449;SDS011;22475;51.390;7.180;2023-06-22T03:54:55;3.30;;;3.05;;
36449;SDS011;22475;51.390;7.180;2023-06-22T03:57:22;2.72;;;2.53;;
36449;SDS011;22475;51.390;7.180;2023-06-22T03:59:48;2.58;;;2.38;;
36449;SDS011;22475;51.390;7.180;2023-06-22T04:02:17;3.30;;;2.25;;
36449;SDS011;22475;51.390;7.180;2023-06-22T04:04:43;2.33;;;2.10;;
36449;SDS011;22475;51.390;7.180;2023-06-22T04:07:10;3.00;;;2.35;;
36449;SDS011;22475;51.390;7.180;2023-06-22T04:09:37;6.72;;;2.75;;
36449;SDS011;22475;51.390;7.180;2023-06-22T04:12:04;6.53;;;2.40;;
36449;SDS011;22475;51.390;7.180;2023-06-22T04:14:31;3.00;;;2.70;;
36449;SDS011;22475;51.390;7.180;2023-06-22T04:16:58;2.10;;;2.00;;
36449;SDS011;22475;51.390;7.180;2023-06-22T04:19:26;2.75;;;2.55;;
36449;SDS011;22475;51.390;7.180;2023-06-22T04:21:53;2.40;;;2.20;;
36449;SDS011;22475;51.390;7.180;2023-06-22T04:24:19;3.22;;;2.28;;
36449;SDS011;22475;51.390;7.180;2023-06-22T04:26:46;2.78;;;1.85;;
36449;SDS011;22475;51.390;7.180;2023-06-22T04:29:13;5.50;;;2.47;;
36449;SDS011;22475;51.390;7.180;2023-06-22T04:31:40;3.10;;;2.78;;
36449;SDS011;22475;51.390;7.180;2023-06-22T04:34:07;3.70;;;2.30;;
36449;SDS011;22475;51.390;7.180;2023-06-22T04:36:36;3.25;;;2.42;;
36449;SDS011;22475;51.390;7.180;2023-06-22T04:39:04;2.72;;;2.05;;
36449;SDS011;22475;51.390;7.180;2023-06-22T04:41:32;2.42;;;2.33;;
36449;SDS011;22475;51.390;7.180;2023-06-22T04:44:06;2.38;;;2.05;;
36449;SDS011;22475;51.390;7.180;2023-06-22T04:46:34;3.17;;;2.60;;
36449;SDS011;22475;51.390;7.180;2023-06-22T04:49:03;4.05;;;2.75;;
36449;SDS011;22475;51.390;7.180;2023-06-22T04:51:37;5.70;;;2.20;;
36449;SDS011;22475;51.390;7.180;2023-06-22T04:54:05;2.63;;;2.42;;
36449;SDS011;22475;51.390;7.180;2023-06-22T04:56:32;3.50;;;2.45;;
36449;SDS011;22475;51.390;7.180;2023-06-22T04:58:59;3.60;;;2.63;;
36449;SDS011;22475;51.390;7.180;2023-06-22T05:01:26;4.85;;;2.85;;
36449;SDS011;22475;51.390;7.180;2023-06-22T05:03:53;6.93;;;3.15;;
36449;SDS011;22475;51.390;7.180;2023-06-22T05:06:22;3.13;;;2.00;;
36449;SDS011;22475;51.390;7.180;2023-06-22T05:08:52;2.95;;;2.72;;
36449;SDS011;22475;51.390;7.180;2023-06-22T05:11:22;4.28;;;2.97;;
36449;SDS011;22475;51.390;7.180;2023-06-22T05:13:49;3.17;;;2.63;;
36449;SDS011;22475;51.390;7.180;2023-06-22T05:16:16;4.43;;;2.92;;
36449;SDS011;22475;51.390;7.180;2023-06-22T05:18:48;2.97;;;2.75;;
36449;SDS011;22475;51.390;7.180;2023-06-22T05:21:16;3.03;;;2.38;;
36449;SDS011;22475;51.390;7.180;2023-06-22T05:23:43;4.25;;;2.80;;
36449;SDS011;22475;51.390;7.180;2023-06-22T05:26:11;3.47;;;3.17;;
36449;SDS011;22475;51.390;7.180;2023-06-22T05:28:37;3.65;;;3.10;;
36449;SDS011;22475;51.390;7.180;2023-06-22T05:31:04;3.35;;;3.15;;
36449;SDS011;22475;51.390;7.180;2023-06-22T05:33:31;5.70;;;3.05;;
36449;SDS011;22475;51.390;7.180;2023-06-22T05:35:58;2.60;;;2.35;;
36449;SDS011;22475;51.390;7.180;2023-06-22T05:38:25;4.90;;;2.45;;
36449;SDS011;22475;51.390;7.180;2023-06-22T05:40:51;2.60;;;2.40;;
36449;SDS011;22475;51.390;7.180;2023-06-22T05:43:19;2.88;;;2.67;;
36449;SDS011;22475;51.390;7.180;2023-06-22T05:45:46;3.15;;;2.83;;
36449;SDS011;22475;51.390;7.180;2023-06-22T05:48:13;2.72;;;2.47;;
36449;SDS011;22475;51.390;7.180;2023-06-22T05:50:40;3.97;;;2.90;;
36449;SDS011;22475;51.390;7.180;2023-06-22T05:53:06;6.00;;;2.33;;
36449;SDS011;22475;51.390;7.180;2023-06-22T05:55:33;2.78;;;2.58;;
36449;SDS011;22475;51.390;7.180;2023-06-22T05:58:00;2.38;;;2.17;;
36449;SDS011;22475;51.390;7.180;2023-06-22T06:00:30;2.30;;;2.03;;
36449;SDS011;22475;51.390;7.180;2023-06-22T06:02:57;2.30;;;2.10;;
36449;SDS011;22475;51.390;7.180;2023-06-22T06:05:28;2.85;;;2.65;;
36449;SDS011;22475;51.390;7.180;2023-06-22T06:07:55;3.33;;;2.50;;
36449;SDS011;22475;51.390;7.180;2023-06-22T06:10:22;2.38;;;2.17;;
36449;SDS011;22475;51.390;7.180;2023-06-22T06:12:49;3.58;;;2.83;;
36449;SDS011;22475;51.390;7.180;2023-06-22T06:15:16;3.17;;;2.72;;
36449;SDS011;22475;51.390;7.180;2023-06-22T06:17:47;3.05;;;2.85;;
36449;SDS011;22475;51.390;7.180;2023-06-22T06:20:14;3.10;;;2.75;;
36449;SDS011;22475;51.390;7.180;2023-06-22T06:22:41;3.00;;;2.80;;
36449;SDS011;22475;51.390;7.180;2023-06-22T06:25:08;3.08;;;2.45;;
36449;SDS011;22475;51.390;7.180;2023-06-22T06:27:41;6.47;;;2.45;;
36449;SDS011;22475;51.390;7.180;2023-06-22T06:30:08;3.33;;;2.60;;
36449;SDS011;22475;51.390;7.180;2023-06-22T06:32:36;2.38;;;2.17;;
36449;SDS011;22475;51.390;7.180;2023-06-22T06:35:05;2.67;;;2.33;;
36449;SDS011;22475;51.390;7.180;2023-06-22T06:37:33;3.42;;;2.58;;
36449;SDS011;22475;51.390;7.180;2023-06-22T06:40:02;2.53;;;2.33;;
36449;SDS011;22475;51.390;7.180;2023-06-22T06:42:31;2.80;;;2.47;;
36449;SDS011;22475;51.390;7.180;2023-06-22T06:44:58;5.10;;;2.17;;
36449;SDS011;22475;51.390;7.180;2023-06-22T06:47:25;2.33;;;2.08;;
36449;SDS011;22475;51.390;7.180;2023-06-22T06:49:52;2.53;;;2.20;;
36449;SDS011;22475;51.390;7.180;2023-06-22T06:52:20;2.22;;;2.13;;
36449;SDS011;22475;51.390;7.180;2023-06-22T06:54:46;2.25;;;2.05;;
36449;SDS011;22475;51.390;7.180;2023-06-22T06:57:13;1.55;;;1.45;;
36449;SDS011;22475;51.390;7.180;2023-06-22T06:59:40;2.22;;;2.03;;
36449;SDS011;22475;51.390;7.180;2023-06-22T07:02:07;1.95;;;1.85;;
36449;SDS011;22475;51.390;7.180;2023-06-22T07:04:34;1.95;;;1.73;;
36449;SDS011;22475;51.390;7.180;2023-06-22T07:07:01;2.35;;;2.15;;
36449;SDS011;22475;51.390;7.180;2023-06-22T07:09:30;2.72;;;2.05;;
36449;SDS011;22475;51.390;7.180;2023-06-22T07:11:56;2.33;;;2.17;;
36449;SDS011;22475;51.390;7.180;2023-06-22T07:14:23;2.45;;;2.25;;
36449;SDS011;22475;51.390;7.180;2023-06-22T07:16:50;2.15;;;2.05;;
36449;SDS011;22475;51.390;7.180;2023-06-22T07:19:17;2.30;;;2.10;;
36449;SDS011;22475;51.390;7.180;2023-06-22T07:21:51;2.58;;;2.38;;
36449;SDS011;22475;51.390;7.180;2023-06-22T07:24:18;6.95;;;2.22;;
36449;SDS011;22475;51.390;7.180;2023-06-22T07:26:47;6.45;;;2.30;;
36449;SDS011;22475;51.390;7.180;2023-06-22T07:29:15;3.30;;;2.97;;
36449;SDS011;22475;51.390;7.180;2023-06-22T07:31:42;2.15;;;2.05;;
36449;SDS011;22475;51.390;7.180;2023-06-22T07:34:09;2.28;;;2.17;;
36449;SDS011;22475;51.390;7.180;2023-06-22T07:36:35;2.17;;;1.98;;
36449;SDS011;22475;51.390;7.180;2023-06-22T07:39:02;1.88;;;1.77;;
36449;SDS011;22475;51.390;7.180;2023-06-22T07:41:29;2.47;;;2.28;;
36449;SDS011;22475;51.390;7.180;2023-06-22T07:43:57;2.75;;;2.15;;
36449;SDS011;22475;51.390;7.180;2023-06-22T07:46:24;2.67;;;2.47;;
36449;SDS011;22475;51.390;7.180;2023-06-22T07:48:51;2.60;;;2.40;;
36449;SDS011;22475;51.390;7.180;2023-06-22T07:51:17;3.20;;;3.00;;
36449;SDS011;22475;51.390;7.180;2023-06-22T07:53:44;4.22;;;2.25;;
36449;SDS011;22475;51.390;7.180;2023-06-22T07:56:11;2.50;;;2.30;;
36449;SDS011;22475;51.390;7.180;2023-06-22T07:58:38;3.03;;;2.72;;
36449;SDS011;22475;51.390;7.180;2023-06-22T08:01:06;2.42;;;2.22;;
36449;SDS011;22475;51.390;7.180;2023-06-22T08:03:33;4.47;;;2.40;;
36449;SDS011;22475;51.390;7.180;2023-06-22T08:05:59;3.47;;;2.40;;
36449;SDS011;22475;51.390;7.180;2023-06-22T08:08:26;2.75;;;2.33;;
36449;SDS011;22475;51.390;7.180;2023-06-22T08:10:53;10.73;;;2.85;;
36449;SDS011;22475;51.390;7.180;2023-06-22T08:13:20;2.17;;;2.05;;
36449;SDS011;22475;51.390;7.180;2023-06-22T08:15:47;3.13;;;2.63;;
36449;SDS011;22475;51.390;7.180;2023-06-22T08:18:15;3.72;;;2.75;;
36449;SDS011;22475;51.390;7.180;2023-06-22T08:20:42;5.15;;;2.85;;
36449;SDS011;22475;51.390;7.180;2023-06-22T08:23:09;2.78;;;2.55;;
36449;SDS011;22475;51.390;7.180;2023-06-22T08:25:35;2.22;;;2.03;;
36449;SDS011;22475;51.390;7.180;2023-06-22T08:28:03;2.97;;;2.78;;
36449;SDS011;22475;51.390;7.180;2023-06-22T08:30:30;2.22;;;2.03;;
36449;SDS011;22475;51.390;7.180;2023-06-22T08:32:57;2.95;;;2.35;;
36449;SDS011;22475;51.390;7.180;2023-06-22T08:35:25;2.05;;;1.90;;
36449;SDS011;22475;51.390;7.180;2023-06-22T08:37:52;3.05;;;2.25;;
36449;SDS011;22475;51.390;7.180;2023-06-22T08:40:21;3.22;;;2.60;;
36449;SDS011;22475;51.390;7.180;2023-06-22T08:42:49;3.22;;;2.92;;
36449;SDS011;22475;51.390;7.180;2023-06-22T08:45:16;3.67;;;2.90;;
36449;SDS011;22475;51.390;7.180;2023-06-22T08:47:42;2.35;;;2.15;;
36449;SDS011;22475;51.390;7.180;2023-06-22T08:50:09;2.22;;;2.03;;
36449;SDS011;22475;51.390;7.180;2023-06-22T08:52:39;3.33;;;2.28;;
36449;SDS011;22475;51.390;7.180;2023-06-22T08:55:07;2.60;;;2.40;;
36449;SDS011;22475;51.390;7.180;2023-06-22T08:57:34;3.17;;;2.50;;
36449;SDS011;22475;51.390;7.180;2023-06-22T09:00:04;4.10;;;3.22;;
36449;SDS011;22475;51.390;7.180;2023-06-22T09:02:36;2.53;;;2.33;;
36449;SDS011;22475;51.390;7.180;2023-06-22T09:05:05;2.47;;;2.30;;
36449;SDS011;22475;51.390;7.180;2023-06-22T09:07:32;2.65;;;2.45;;
36449;SDS011;22475;51.390;7.180;2023-06-22T09:10:00;2.08;;;1.95;;
36449;SDS011;22475;51.390;7.180;2023-06-22T09:12:29;3.13;;;2.92;;
36449;SDS011;22475;51.390;7.180;2023-06-22T09:14:57;3.53;;;3.22;;
36449;SDS011;22475;51.390;7.180;2023-06-22T09:17:25;2.85;;;2.65;;
36449;SDS011;22475;51.390;7.180;2023-06-22T09:19:52;3.47;;;2.30;;
36449;SDS011;22475;51.390;7.180;2023-06-22T09:22:19;3.03;;;2.83;;
36449;SDS011;22475;51.390;7.180;2023-06-22T09:24:46;2.72;;;2.53;;
36449;SDS011;22475;51.390;7.180;2023-06-22T09:27:14;3.25;;;3.03;;
36449;SDS011;22475;51.390;7.180;2023-06-22T09:29:41;2.63;;;2.42;;
36449;SDS011;22475;51.390;7.180;2023-06-22T09:32:08;2.60;;;2.40;;
36449;SDS011;22475;51.390;7.180;2023-06-22T09:34:35;2.92;;;2.72;;
36449;SDS011;22475;51.390;7.180;2023-06-22T09:37:01;2.97;;;2.47;;
36449;SDS011;22475;51.390;7.180;2023-06-22T09:39:28;3.28;;;2.85;;
36449;SDS011;22475;51.390;7.180;2023-06-22T09:41:55;2.75;;;2.53;;
36449;SDS011;22475;51.390;7.180;2023-06-22T09:44:25;2.05;;;1.95;;
36449;SDS011;22475;51.390;7.180;2023-06-22T09:46:52;2.58;;;2.42;;
36449;SDS011;22475;51.390;7.180;2023-06-22T09:49:18;2.40;;;2.20;;
36449;SDS011;22475;51.390;7.180;2023-06-22T09:51:45;2.47;;;2.28;;
36449;SDS011;22475;51.390;7.180;2023-06-22T09:54:12;3.05;;;2.75;;
36449;SDS011;22475;51.390;7.180;2023-06-22T09:56:39;1.80;;;1.70;;
36449;SDS011;22475;51.390;7.180;2023-06-22T09:59:06;2.58;;;2.38;;
36449;SDS011;22475;51.390;7.180;2023-06-22T10:01:34;2.67;;;2.42;;
36449;SDS011;22475;51.390;7.180;2023-06-22T10:04:01;3.35;;;3.05;;
36449;SDS011;22475;51.390;7.180;2023-06-22T10:06:28;2.97;;;2.78;;
36449;SDS011;22475;51.390;7.180;2023-06-22T10:08:55;2.63;;;2.42;;
36449;SDS011;22475;51.390;7.180;2023-06-22T10:11:21;2.92;;;2.70;;
36449;SDS011;22475;51.390;7.180;2023-06-22T10:13:54;3.00;;;2.63;;
36449;SDS011;22475;51.390;7.180;2023-06-22T10:16:20;3.08;;;2.88;;
36449;SDS011;22475;51.390;7.180;2023-06-22T10:18:48;3.25;;;2.60;;
36449;SDS011;22475;51.390;7.180;2023-06-22T10:21:15;2.83;;;2.47;;
36449;SDS011;22475;51.390;7.180;2023-06-22T10:23:42;2.47;;;2.35;;
36449;SDS011;22475;51.390;7.180;2023-06-22T10:26:09;3.00;;;2.80;;
36449;SDS011;22475;51.390;7.180;2023-06-22T10:28:35;2.80;;;2.60;;
36449;SDS011;22475;51.390;7.180;2023-06-22T10:31:02;5.93;;;2.50;;
36449;SDS011;22475;51.390;7.180;2023-06-22T10:33:29;2.25;;;2.15;;
36449;SDS011;22475;51.390;7.180;2023-06-22T10:35:57;3.50;;;3.20;;
36449;SDS011;22475;51.390;7.180;2023-06-22T10:38:23;3.00;;;2.80;;
36449;SDS011;22475;51.390;7.180;2023-06-22T10:40:50;3.40;;;2.78;;
36449;SDS011;22475;51.390;7.180;2023-06-22T10:43:17;3.00;;;2.80;;
36449;SDS011;22475;51.390;7.180;2023-06-22T10:45:44;5.03;;;2.83;;
36449;SDS011;22475;51.390;7.180;2023-06-22T10:48:11;3.05;;;2.85;;
36449;SDS011;22475;51.390;7.180;2023-06-22T10:50:38;2.97;;;2.78;;
36449;SDS011;22475;51.390;7.180;2023-06-22T10:53:06;2.42;;;2.33;;
36449;SDS011;22475;51.390;7.180;2023-06-22T10:55:33;4.75;;;2.38;;
36449;SDS011;22475;51.390;7.180;2023-06-22T10:57:59;2.67;;;2.47;;
36449;SDS011;22475;51.390;7.180;2023-06-22T11:00:26;3.33;;;3.03;;
36449;SDS011;22475;51.390;7.180;2023-06-22T11:02:53;3.13;;;2.85;;
36449;SDS011;22475;51.390;7.180;2023-06-22T11:05:19;2.95;;;2.75;;
36449;SDS011;22475;51.390;7.180;2023-06-22T11:07:46;2.63;;;2.42;;
36449;SDS011;22475;51.390;7.180;2023-06-22T11:10:16;3.00;;;2.80;;
36449;SDS011;22475;51.390;7.180;2023-06-22T11:12:42;2.60;;;2.40;;
36449;SDS011;22475;51.390;7.180;2023-06-22T11:15:09;2.88;;;2.67;;
36449;SDS011;22475;51.390;7.180;2023-06-22T11:17:36;4.20;;;2.53;;
36449;SDS011;22475;51.390;7.180;2023-06-22T11:20:04;2.90;;;2.63;;
36449;SDS011;22475;51.390;7.180;2023-06-22T11:22:36;3.15;;;2.85;;
36449;SDS011;22475;51.390;7.180;2023-06-22T11:25:04;2.38;;;2.28;;
36449;SDS011;22475;51.390;7.180;2023-06-22T11:27:33;2.42;;;2.22;;
36449;SDS011;22475;51.390;7.180;2023-06-22T11:30:00;5.78;;;2.45;;
36449;SDS011;22475;51.390;7.180;2023-06-22T11:32:26;3.28;;;2.97;;
36449;SDS011;22475;51.390;7.180;2023-06-22T11:34:53;2.75;;;2.55;;
36449;SDS011;22475;51.390;7.180;2023-06-22T11:37:20;4.07;;;2.85;;
36449;SDS011;22475;51.390;7.180;2023-06-22T11:39:47;4.10;;;2.80;;
36449;SDS011;22475;51.390;7.180;2023-06-22T11:42:13;3.00;;;2.80;;
36449;SDS011;22475;51.390;7.180;2023-06-22T11:44:41;3.20;;;2.90;;
36449;SDS011;22475;51.390;7.180;2023-06-22T11:47:08;3.20;;;3.00;;
36449;SDS011;22475;51.390;7.180;2023-06-22T11:49:35;3.72;;;3.42;;
36449;SDS011;22475;51.390;7.180;2023-06-22T11:52:02;3.35;;;3.05;;
36449;SDS011;22475;51.390;7.180;2023-06-22T11:54:29;3.58;;;2.95;;
36449;SDS011;22475;51.390;7.180;2023-06-22T11:56:55;3.63;;;3.08;;
36449;SDS011;22475;51.390;7.180;2023-06-22T11:59:22;3.65;;;3.35;;
36449;SDS011;22475;51.390;7.180;2023-06-22T12:01:50;3.20;;;2.90;;
36449;SDS011;22475;51.390;7.180;2023-06-22T12:04:17;5.05;;;2.95;;
36449;SDS011;22475;51.390;7.180;2023-06-22T12:06:44;3.67;;;3.38;;
36449;SDS011;22475;51.390;7.180;2023-06-22T12:09:10;3.17;;;2.95;;
36449;SDS011;22475;51.390;7.180;2023-06-22T12:11:38;4.00;;;3.03;;
36449;SDS011;22475;51.390;7.180;2023-06-22T12:14:05;2.38;;;2.17;;
36449;SDS011;22475;51.390;7.180;2023-06-22T12:16:32;2.65;;;2.47;;
36449;SDS011;22475;51.390;7.180;2023-06-22T12:19:00;3.53;;;3.22;;
36449;SDS011;22475;51.390;7.180;2023-06-22T12:21:26;3.05;;;2.83;;
36449;SDS011;22475;51.390;7.180;2023-06-22T12:23:54;3.15;;;2.83;;
36449;SDS011;22475;51.390;7.180;2023-06-22T12:26:21;4.35;;;2.50;;
36449;SDS011;22475;51.390;7.180;2023-06-22T12:28:47;3.47;;;3.20;;
36449;SDS011;22475;51.390;7.180;2023-06-22T12:31:14;4.65;;;3.53;;
36449;SDS011;22475;51.390;7.180;2023-06-22T12:33:41;3.42;;;3.17;;
36449;SDS011;22475;51.390;7.180;2023-06-22T12:36:09;3.72;;;3.42;;
36449;SDS011;22475;51.390;7.180;2023-06-22T12:38:36;3.45;;;3.20;;
36449;SDS011;22475;51.390;7.180;2023-06-22T12:41:03;2.65;;;2.45;;
36449;SDS011;22475;51.390;7.180;2023-06-22T12:43:29;3.30;;;3.00;;
36449;SDS011;22475;51.390;7.180;2023-06-22T12:45:56;3.78;;;2.88;;
36449;SDS011;22475;51.390;7.180;2023-06-22T12:48:23;4.55;;;3.13;;
36449;SDS011;22475;51.390;7.180;2023-06-22T12:50:51;3.40;;;3.10;;
36449;SDS011;22475;51.390;7.180;2023-06-22T12:53:19;7.85;;;3.70;;
36449;SDS011;22475;51.390;7.180;2023-06-22T12:55:47;3.45;;;3.15;;
36449;SDS011;22475;51.390;7.180;2023-06-22T12:58:14;3.55;;;3.00;;
36449;SDS011;22475;51.390;7.180;2023-06-22T13:00:41;3.10;;;2.90;;
36449;SDS011;22475;51.390;7.180;2023-06-22T13:03:08;3.38;;;3.13;;
36449;SDS011;22475;51.390;7.180;2023-06-22T13:05:35;3.90;;;3.60;;
36449;SDS011;22475;51.390;7.180;2023-06-22T13:08:01;3.55;;;3.25;;
36449;SDS011;22475;51.390;7.180;2023-06-22T13:10:29;3.58;;;3.28;;
36449;SDS011;22475;51.390;7.180;2023-06-22T13:12:56;3.10;;;2.80;;
36449;SDS011;22475;51.390;7.180;2023-06-22T13:15:25;7.22;;;3.20;;
36449;SDS011;22475;51.390;7.180;2023-06-22T13:17:52;3.45;;;3.25;;
36449;SDS011;22475;51.390;7.180;2023-06-22T13:20:19;4.45;;;4.13;;
36449;SDS011;22475;51.390;7.180;2023-06-22T13:22:46;3.10;;;2.80;;
36449;SDS011;22475;51.390;7.180;2023-06-22T13:25:13;3.25;;;3.05;;
36449;SDS011;22475;51.390;7.180;2023-06-22T13:27:45;3.63;;;3.33;;
36449;SDS011;22475;51.390;7.180;2023-06-22T13:30:12;3.72;;;3.42;;
36449;SDS011;22475;51.390;7.180;2023-06-22T13:32:39;3.42;;;3.13;;
36449;SDS011;22475;51.390;7.180;2023-06-22T13:35:07;6.00;;;3.42;;
36449;SDS011;22475;51.390;7.180;2023-06-22T13:37:34;4.30;;;3.35;;
36449;SDS011;22475;51.390;7.180;2023-06-22T13:40:01;4.00;;;3.63;;
36449;SDS011;22475;51.390;7.180;2023-06-22T13:42:30;3.50;;;3.20;;
36449;SDS011;22475;51.390;7.180;2023-06-22T13:44:58;3.40;;;2.97;;
36449;SDS011;22475;51.390;7.180;2023-06-22T13:47:25;3.80;;;3.50;;
36449;SDS011;22475;51.390;7.180;2023-06-22T13:49:52;3.42;;;3.05;;
36449;SDS011;22475;51.390;7.180;2023-06-22T13:52:18;3.58;;;3.28;;
36449;SDS011;22475;51.390;7.180;2023-06-22T13:54:45;3.83;;;3.53;;
36449;SDS011;22475;51.390;7.180;2023-06-22T13:57:12;5.68;;;3.72;;
36449;SDS011;22475;51.390;7.180;2023-06-22T13:59:38;3.53;;;3.22;;
36449;SDS011;22475;51.390;7.180;2023-06-22T14:02:07;3.38;;;2.95;;
36449;SDS011;22475;51.390;7.180;2023-06-22T14:04:34;3.00;;;2.80;;
36449;SDS011;22475;51.390;7.180;2023-06-22T14:07:00;4.90;;;3.33;;
36449;SDS011;22475;51.390;7.180;2023-06-22T14:09:27;3.95;;;3.28;;
36449;SDS011;22475;51.390;7.180;2023-06-22T14:11:54;3.30;;;3.10;;
36449;SDS011;22475;51.390;7.180;2023-06-22T14:14:21;3.53;;;3.25;;
36449;SDS011;22475;51.390;7.180;2023-06-22T14:16:48;4.03;;;3.63;;
36449;SDS011;22475;51.390;7.180;2023-06-22T14:19:17;8.63;;;3.30;;
36449;SDS011;22475;51.390;7.180;2023-06-22T14:21:44;3.33;;;3.03;;
36449;SDS011;22475;51.390;7.180;2023-06-22T14:24:11;3.33;;;3.05;;
36449;SDS011;22475;51.390;7.180;2023-06-22T14:26:37;3.70;;;3.40;;
36449;SDS011;22475;51.390;7.180;2023-06-22T14:29:04;3.00;;;2.80;;
36449;SDS011;22475;51.390;7.180;2023-06-22T14:31:31;3.40;;;3.10;;
36449;SDS011;22475;51.390;7.180;2023-06-22T14:33:58;4.28;;;3.20;;
36449;SDS011;22475;51.390;7.180;2023-06-22T14:36:26;3.10;;;2.88;;
36449;SDS011;22475;51.390;7.180;2023-06-22T14:38:53;3.63;;;3.33;;
36449;SDS011;22475;51.390;7.180;2023-06-22T14:41:20;3.30;;;3.10;;
36449;SDS011;22475;51.390;7.180;2023-06-22T14:43:47;3.75;;;2.83;;
36449;SDS011;22475;51.390;7.180;2023-06-22T14:46:15;3.95;;;3.65;;
36449;SDS011;22475;51.390;7.180;2023-06-22T14:48:43;3.95;;;3.53;;
36449;SDS011;22475;51.390;7.180;2023-06-22T14:51:11;3.40;;;2.90;;
36449;SDS011;22475;51.390;7.180;2023-06-22T14:53:39;3.88;;;3.33;;